Meteo Giornale » Osservazioni meteo Stati Uniti (USA) » Las Vegas North
ore: 00:53 - Osservazioni Meteo Las Vegas North
Lat. 36° 12' N Lon. 115° 11' W Alt. 672 metri s.l.m.
29 °C
Sereno
Temp. 24 Ore
25 °C
37 °C
Sud/Sud-Ovest
11.1 Km/h
Dew point -1 °C
Umidità 14 %
Visibilità 10 Km
Il sole sorge alle ore 06:12
Il sole tramonta alle ore 19:08
| Data e Ora | Cielo e Fenomeni | T °C | DP °C | Um. % | Pres. hPa | Vis. km | Vento km/h | |
|---|---|---|---|---|---|---|---|---|
| Oggi h: 00:53 | Sereno | 29 | -1 | 14 | 1011 | 10 | S/SO 11.1 | |
| Ieri h: 23:53 | Sereno | 31 | -2 | 11 | 1011 | 10 | S 13 | |
| Ieri h: 22:53 | Sereno | 31 | 9 | 25 | 1010 | 10 | S/SO 27.8 | |
| Ieri h: 21:53 | Sereno | 32 | 12 | 29 | 1010 | 10 | S 31.5 | |
| Ieri h: 20:53 | Sereno | 32 | 14 | 33 | 1010 | 10 | S 29.6 | |
| Ieri h: 18:53 | Sereno | 35 | 4 | 14 | 1008 | 10 | SO 22.2 | |
| Ieri h: 17:53 | Sereno | 37 | 3 | 12 | 1008 | 10 | S/SO 27.8 | |
| Ieri h: 16:53 | Sereno | 37 | 4 | 12 | 1008 | 10 | S/SO 20.3 | |
| Ieri h: 15:53 | Nuvoloso | 37 | 6 | 14 | 1008 | 10 | SO 27.8 | |
| Ieri h: 13:53 | Nuvoloso | 37 | 6 | 14 | 1010 | 10 | S 18.5 | |
| Ieri h: 12:53 | Sereno | 36 | 8 | 18 | 1011 | 10 | S 20.3 | |
| Ieri h: 11:53 | Sereno | 34 | 9 | 21 | 1012 | 10 | S/SE 16.7 | |
| Ieri h: 10:53 | Sereno | 34 | 8 | 20 | 1012 | 10 | SE 31.5 | |
| Ieri h: 09:53 | Sereno | 32 | 8 | 22 | 1012 | 10 | SE 22.2 | |
| Ieri h: 08:53 | Sereno | 31 | 7 | 22 | 1012 | 10 | S/SE 18.5 | |
| Ieri h: 07:53 | Sereno | 29 | 8 | 26 | 1012 | 10 | E/SE 9.3 | |
| Ieri h: 06:53 | Sereno | 26 | 7 | 29 | 1011 | 10 | N 0 | |
| Ieri h: 05:53 | Sereno | 25 | 8 | 33 | 1011 | 10 | NO 9.3 | |
| Ieri h: 04:53 | Sereno | 25 | 7 | 31 | 1010 | 10 | O/NO 7.4 | |
| Ieri h: 03:53 | Sereno | 27 | 7 | 28 | 1010 | 10 | N 0 | |
| Ieri h: 02:53 | Sereno | 26 | 6 | 27 | 1010 | 10 | N 5.5 | |
| Ieri h: 01:53 | Sereno | 27 | 6 | 26 | 1010 | 10 | N 5.5 | |



